Airfield :
LOGIN :

Register | Disclaimer

   EN    FR    IT 

 










Legend :    VFR   Marginal VFR   IFR   Intensive IFR   Very Intensive IFR
Visi :
Ceiling :
>= 8 km
>= 3000ft
5 to 8 km
1000 to 3000 ft
1500m to 5 km
500 to 1000 ft
800 to 1500m
200 to 500 ft
< 800m
< 200 ft
Symbols :   Thunderstorms  Fog  Heavy snow  Heavy precipitations  Wind > 20 kt
SIGMETs :     Misc.  Thunderstorms  Icing  Turbulence  Mountain Waves  Volcanic Ashes






- Airport Elevation : 74 ft
- IATA code : LRH


LFBH - La Rochelle Ile de Ré

CURRENT METAR :
  • 020130Z AUTO 14008KT CAVOK 10/06 Q1024 NOSIG

EXPIRED METARs :
  • 020100Z AUTO 13009KT CAVOK 10/05 Q1023 NOSIG
  • 020030Z AUTO 10009KT CAVOK 08/05 Q1023 NOSIG
  • 020000Z AUTO 09008KT CAVOK 08/05 Q1023 NOSIG
  • 012330Z AUTO 09009KT CAVOK 08/05 Q1023 NOSIG
  • 012300Z AUTO 08010KT CAVOK 09/05 Q1023 NOSIG

TAF TAF LFBH
Valid from the 02 at 00:00 until the 03 at 00:00 UTC


012300Z 0200/0224 09005KT CAVOK
BECMG 0200/0202 13010KT
ATIS : +33 5 46 00 13 92



MET'MAP, your aeronautical weather chart ! - Copyright ORBIFLY December 2007 - Disclaimer

ORBIFLY MET'MAP TEAM :

Programming & Development : Alexandra Zaïnal
Concept & original design : Baudouin d'Aumeries
Assistance for programming : Marc-Olivier Méhu
Technical & hardware support : Manuel Goepfert

Contact : metmap@orbifly.com




SOURCES & CREDITS :

   NOAA